Time;durP1;ratioP1;P1;durP2;ratioP2;P2;SDS_P1;SDS_P2;PMS_P1;PMS_P2;Temp;Humidity;BMP_temperature;BMP_pressure;BME280_temperature;BME280_humidity;BME280_pressure;Samples;Min_cycle;Max_cycle;Signal;HPM_P1;HPM_P2
2022/12/29 00:01:39;;;;;;;2.40;1.63;;;8.20;99.90;;;;;;5024319;28;20681;-67
2022/12/29 00:04:05;;;;;;;2.93;1.90;;;8.20;99.90;;;;;;5024403;28;20195;-65
2022/12/29 00:06:31;;;;;;;2.97;1.83;;;8.30;99.90;;;;;;5020183;28;20199;-68
2022/12/29 00:08:56;;;;;;;2.50;1.47;;;8.30;99.90;;;;;;5025870;28;20313;-68
2022/12/29 00:11:24;;;;;;;1.50;1.40;;;8.30;99.90;;;;;;5022205;28;20342;-68
2022/12/29 00:16:35;;;;;;;2.67;1.83;;;8.50;99.90;;;;;;5024041;28;20691;-59
2022/12/29 00:19:01;;;;;;;1.80;1.50;;;8.90;99.90;;;;;;5021521;28;20726;-58
2022/12/29 00:35:31;;;;;;;2.70;1.97;;;9.20;99.90;;;;;;5027024;28;20221;-61
2022/12/29 00:46:15;;;;;;;1.90;1.50;;;9.50;99.90;;;;;;5026435;28;20214;-60
2022/12/29 00:51:25;;;;;;;1.77;1.67;;;9.30;99.90;;;;;;5035261;28;20245;-61
2022/12/29 00:53:50;;;;;;;4.07;2.10;;;9.40;99.90;;;;;;5034635;28;20655;-61
2022/12/29 00:56:16;;;;;;;1.30;1.20;;;9.40;99.90;;;;;;5032124;28;20191;-59
2022/12/29 00:58:41;;;;;;;1.73;1.63;;;9.40;99.90;;;;;;5024942;28;20183;-60
2022/12/29 01:01:08;;;;;;;7.93;2.87;;;9.40;99.90;;;;;;5023951;28;20215;-61
2022/12/29 01:03:36;;;;;;;9.57;7.10;;;9.40;99.90;;;;;;5024033;28;20204;-61
2022/12/29 01:06:03;;;;;;;1.87;1.67;;;9.40;99.90;;;;;;5027404;28;20721;-60
2022/12/29 01:08:29;;;;;;;3.60;1.87;;;9.30;99.90;;;;;;5024813;28;20210;-59
2022/12/29 01:11:03;;;;;;;1.77;1.67;;;9.40;99.90;;;;;;5025903;28;20248;-60
2022/12/29 01:13:29;;;;;;;4.70;3.60;;;9.30;99.90;;;;;;5029274;28;20203;-58
2022/12/29 01:15:55;;;;;;;1.70;1.60;;;9.20;99.90;;;;;;5034606;28;20225;-68
2022/12/29 01:18:21;;;;;;;1.80;1.47;;;9.30;99.90;;;;;;5032099;28;20195;-70
2022/12/29 01:20:46;;;;;;;1.10;1.10;;;9.40;99.90;;;;;;5030432;28;20231;-64
2022/12/29 01:23:12;;;;;;;4.17;2.70;;;9.30;99.90;;;;;;5026294;28;20254;-64
2022/12/29 01:25:37;;;;;;;1.70;1.40;;;9.20;99.90;;;;;;5035683;28;20258;-63
2022/12/29 01:28:03;;;;;;;1.67;1.57;;;9.10;99.90;;;;;;5034998;28;20676;-64
2022/12/29 01:30:29;;;;;;;1.53;1.43;;;9.00;99.90;;;;;;5028345;28;20265;-62
2022/12/29 01:32:54;;;;;;;1.67;1.57;;;8.90;99.90;;;;;;5024472;28;20226;-63
2022/12/29 01:35:20;;;;;;;2.37;1.80;;;8.90;99.90;;;;;;5028211;28;20226;-64
2022/12/29 01:37:45;;;;;;;2.30;1.90;;;8.80;99.90;;;;;;5027134;28;20562;-63
2022/12/29 01:40:11;;;;;;;1.87;1.10;;;8.80;99.90;;;;;;5036055;28;20195;-63
2022/12/29 01:42:36;;;;;;;2.17;1.83;;;8.70;99.90;;;;;;5039554;28;20207;-63
2022/12/29 01:45:12;;;;;;;2.17;1.83;;;8.60;99.90;;;;;;5039180;28;20206;-65
2022/12/29 01:47:48;;;;;;;29.87;15.03;;;8.60;99.90;;;;;;5037512;28;20321;-64
2022/12/29 01:50:20;;;;;;;2.33;1.60;;;8.60;99.90;;;;;;5039290;28;20239;-65
2022/12/29 01:52:59;;;;;;;1.63;1.53;;;8.60;99.90;;;;;;5038922;28;20213;-64
2022/12/29 01:55:31;;;;;;;3.07;2.07;;;8.60;99.90;;;;;;5035241;28;20229;-64
2022/12/29 01:58:01;;;;;;;1.63;1.50;;;8.50;99.90;;;;;;5038239;28;20201;-62
2022/12/29 02:00:27;;;;;;;2.40;1.20;;;8.50;99.90;;;;;;5036950;28;20667;-63
2022/12/29 02:02:53;;;;;;;2.07;1.90;;;8.50;99.90;;;;;;5031661;28;20199;-63
2022/12/29 02:05:25;;;;;;;3.40;2.23;;;8.40;99.90;;;;;;5028637;28;20190;-64
2022/12/29 02:07:51;;;;;;;3.43;1.47;;;8.40;99.90;;;;;;5028817;28;20230;-62
2022/12/29 02:10:20;;;;;;;2.60;1.87;;;8.40;99.90;;;;;;5026830;28;20214;-62
2022/12/29 02:12:47;;;;;;;28.20;16.37;;;8.40;99.90;;;;;;5030821;28;20219;-65
2022/12/29 02:15:13;;;;;;;1.63;1.53;;;8.40;99.90;;;;;;5038798;28;20238;-64
2022/12/29 02:18:13;;;;;;;2.17;1.20;;;8.40;99.90;;;;;;5038422;28;20878;-64
2022/12/29 02:21:30;;;;;;;3.97;3.00;;;8.40;99.90;;;;;;5019447;28;20219;-63
2022/12/29 02:24:06;;;;;;;2.70;1.70;;;8.40;99.90;;;;;;4997843;28;20361;-65
2022/12/29 02:27:04;;;;;;;6.47;3.97;;;8.40;99.90;;;;;;5038092;28;20202;-64
2022/12/29 02:29:45;;;;;;;2.20;1.40;;;8.40;99.90;;;;;;5036343;28;20661;-63
2022/12/29 02:32:30;;;;;;;1.53;1.43;;;8.50;99.90;;;;;;5029157;28;20226;-64
2022/12/29 02:35:07;;;;;;;3.23;1.90;;;8.50;99.90;;;;;;5022115;28;20219;-64
2022/12/29 02:37:53;;;;;;;1.37;1.27;;;8.50;99.90;;;;;;5026277;28;20290;-62
2022/12/29 02:40:40;;;;;;;3.27;1.50;;;8.60;99.90;;;;;;5030076;28;20196;-64
2022/12/29 02:43:34;;;;;;;2.37;1.57;;;8.60;99.90;;;;;;5023305;28;20206;-63
2022/12/29 02:46:10;;;;;;;1.43;1.33;;;8.70;99.90;;;;;;5029694;28;20209;-64
2022/12/29 02:48:46;;;;;;;2.10;1.37;;;8.70;99.90;;;;;;5024507;28;20561;-64
2022/12/29 02:51:22;;;;;;;1.63;1.53;;;8.70;99.90;;;;;;5026371;28;20223;-64
2022/12/29 02:56:32;;;;;;;3.67;1.77;;;8.80;99.90;;;;;;5028248;28;20938;-64
2022/12/29 02:58:58;;;;;;;2.47;1.23;;;8.80;99.90;;;;;;5028029;28;20375;-64
2022/12/29 03:01:35;;;;;;;2.20;1.40;;;8.90;99.90;;;;;;5032000;28;20638;-64
2022/12/29 03:04:31;;;;;;;1.97;1.43;;;9.00;99.90;;;;;;5025123;28;20214;-63
2022/12/29 03:07:23;;;;;;;1.73;1.30;;;9.00;99.90;;;;;;5034798;28;20499;-63
2022/12/29 03:10:06;;;;;;;2.27;1.73;;;9.10;99.90;;;;;;5037488;28;20293;-63
2022/12/29 03:16:02;;;;;;;1.67;1.40;;;9.20;99.90;;;;;;5038175;28;20545;-64
2022/12/29 03:18:57;;;;;;;1.47;1.37;;;9.30;99.90;;;;;;5037660;28;20285;-63
2022/12/29 03:22:26;;;;;;;1.53;1.43;;;9.30;99.90;;;;;;5037285;28;20199;-64
2022/12/29 03:24:17;;;;;;;1.50;1.40;;;9.40;99.90;;;;;;5029168;28;20216;-64
2022/12/29 03:26:45;;;;;;;1.80;1.50;;;9.40;99.90;;;;;;5027660;28;20288;-64
2022/12/29 03:29:13;;;;;;;1.60;1.50;;;9.40;99.90;;;;;;5031595;28;20316;-64
2022/12/29 03:31:42;;;;;;;1.80;1.47;;;9.50;99.90;;;;;;5027370;28;20215;-64
2022/12/29 03:34:09;;;;;;;1.87;1.37;;;9.50;99.90;;;;;;5020930;28;20231;-64
2022/12/29 03:36:46;;;;;;;1.80;1.57;;;9.40;99.90;;;;;;5029026;28;20207;-63
2022/12/29 03:39:13;;;;;;;1.50;1.40;;;9.50;99.90;;;;;;5030880;28;20269;-63
2022/12/29 03:41:41;;;;;;;1.50;1.40;;;9.50;99.90;;;;;;5037350;28;20473;-63
2022/12/29 03:44:08;;;;;;;1.50;1.40;;;9.60;99.90;;;;;;5033042;28;20187;-63
2022/12/29 03:46:33;;;;;;;2.10;1.50;;;9.50;99.90;;;;;;5027101;28;20202;-63
2022/12/29 03:48:59;;;;;;;1.43;1.10;;;9.60;99.90;;;;;;5034624;28;20249;-63
2022/12/29 03:51:24;;;;;;;1.50;1.20;;;9.60;99.90;;;;;;5023542;28;20195;-64
2022/12/29 03:53:50;;;;;;;1.03;1.03;;;9.60;99.90;;;;;;5028749;28;20199;-63
2022/12/29 03:56:15;;;;;;;1.77;1.60;;;9.70;99.90;;;;;;5025913;28;20608;-63
2022/12/29 03:58:41;;;;;;;1.87;1.73;;;9.70;99.90;;;;;;5027237;28;20585;-64
2022/12/29 04:01:06;;;;;;;1.53;1.43;;;9.80;99.90;;;;;;5025856;28;20266;-63
2022/12/29 04:03:32;;;;;;;2.93;1.43;;;9.80;99.90;;;;;;5025589;28;20776;-63
2022/12/29 04:05:57;;;;;;;2.20;1.33;;;9.80;99.90;;;;;;5026698;28;20284;-63
2022/12/29 04:08:23;;;;;;;1.43;1.10;;;9.90;99.90;;;;;;5026237;28;20203;-63
2022/12/29 04:10:49;;;;;;;1.63;1.50;;;9.90;99.90;;;;;;5026423;28;20218;-63
2022/12/29 04:13:16;;;;;;;1.87;1.57;;;9.80;99.90;;;;;;5026484;28;20205;-63
2022/12/29 04:15:43;;;;;;;2.33;1.67;;;9.80;99.90;;;;;;5030407;28;20221;-64
2022/12/29 04:18:09;;;;;;;1.27;1.17;;;9.90;99.90;;;;;;5036746;28;20195;-64
2022/12/29 04:23:18;;;;;;;1.23;1.13;;;9.90;99.90;;;;;;5036765;28;20241;-64
2022/12/29 04:25:47;;;;;;;1.30;1.20;;;10.00;99.90;;;;;;5026030;28;20599;-64
2022/12/29 04:28:14;;;;;;;2.27;1.63;;;10.00;99.90;;;;;;5026200;28;20648;-64
2022/12/29 04:30:40;;;;;;;1.33;1.23;;;10.00;99.90;;;;;;5026271;28;20219;-64
2022/12/29 04:33:05;;;;;;;1.50;1.40;;;10.00;99.90;;;;;;5024659;28;20204;-63
2022/12/29 04:35:31;;;;;;;5.13;1.60;;;9.90;99.90;;;;;;5028957;28;20305;-66
2022/12/29 04:37:56;;;;;;;2.53;1.23;;;9.90;99.90;;;;;;5032921;28;20202;-64
2022/12/29 04:40:23;;;;;;;1.60;1.50;;;10.00;99.90;;;;;;5036172;28;20206;-64
2022/12/29 04:42:48;;;;;;;1.77;1.40;;;9.90;99.90;;;;;;5035309;28;20252;-63
2022/12/29 04:45:14;;;;;;;2.00;1.60;;;9.90;99.90;;;;;;5034230;28;20203;-64
2022/12/29 04:47:39;;;;;;;1.43;1.17;;;9.90;99.90;;;;;;5036088;28;20268;-65
2022/12/29 04:50:05;;;;;;;3.57;1.40;;;9.90;99.90;;;;;;5036404;28;20277;-64
2022/12/29 04:52:31;;;;;;;3.80;1.40;;;9.90;99.90;;;;;;5036011;28;20728;-64
2022/12/29 04:54:56;;;;;;;1.37;1.27;;;9.90;99.90;;;;;;5036207;28;20242;-65
2022/12/29 04:57:22;;;;;;;1.33;1.23;;;9.90;99.90;;;;;;5036213;28;20803;-62
2022/12/29 04:59:47;;;;;;;1.57;1.47;;;9.90;99.90;;;;;;5030274;28;20287;-63
2022/12/29 05:02:13;;;;;;;2.00;1.17;;;9.90;99.90;;;;;;5036101;28;20209;-63
2022/12/29 05:04:38;;;;;;;3.97;1.40;;;10.00;99.90;;;;;;5036134;28;20211;-63
2022/12/29 05:07:04;;;;;;;1.00;1.00;;;10.00;99.90;;;;;;5031200;28;20280;-63
2022/12/29 05:09:29;;;;;;;1.70;1.30;;;10.00;99.90;;;;;;5035874;28;20202;-63
2022/12/29 05:11:55;;;;;;;2.77;1.53;;;10.00;99.90;;;;;;5025569;28;20291;-63
2022/12/29 05:14:21;;;;;;;6.00;3.53;;;10.00;99.90;;;;;;5027507;28;20234;-63
2022/12/29 05:16:46;;;;;;;1.80;1.70;;;10.00;99.90;;;;;;5031429;28;20195;-63
2022/12/29 05:19:12;;;;;;;1.40;1.30;;;9.90;99.90;;;;;;5032998;28;20213;-63
2022/12/29 05:21:37;;;;;;;3.17;1.57;;;10.00;99.90;;;;;;5030459;28;20719;-64
2022/12/29 05:24:03;;;;;;;1.97;1.20;;;10.00;99.90;;;;;;5024467;28;20203;-65
2022/12/29 05:26:29;;;;;;;1.80;1.60;;;10.00;99.90;;;;;;5029697;28;20198;-65
2022/12/29 05:28:54;;;;;;;2.13;1.20;;;10.10;99.90;;;;;;5031106;28;20291;-65
2022/12/29 05:31:20;;;;;;;2.40;2.17;;;10.10;99.90;;;;;;5036205;28;20199;-66
2022/12/29 05:33:45;;;;;;;1.93;1.60;;;10.10;99.90;;;;;;5029812;28;20672;-64
2022/12/29 05:36:11;;;;;;;3.50;1.30;;;10.10;99.90;;;;;;5029297;28;20627;-64
2022/12/29 05:38:36;;;;;;;1.60;1.50;;;10.10;99.90;;;;;;5027373;28;20199;-64
2022/12/29 05:41:02;;;;;;;1.43;1.20;;;10.10;99.90;;;;;;5029369;28;20279;-64
2022/12/29 05:43:27;;;;;;;1.17;1.07;;;10.20;99.90;;;;;;5029761;28;20679;-64
2022/12/29 05:45:54;;;;;;;1.97;1.40;;;10.20;99.90;;;;;;5029084;28;20380;-64
2022/12/29 05:48:19;;;;;;;1.93;1.57;;;10.30;99.90;;;;;;5031576;28;20289;-64
2022/12/29 05:50:49;;;;;;;1.83;1.53;;;10.30;99.90;;;;;;5025836;28;20716;-65
2022/12/29 05:53:14;;;;;;;1.57;1.47;;;10.40;99.90;;;;;;5027304;28;20211;-64
2022/12/29 05:55:40;;;;;;;2.13;1.10;;;10.40;99.90;;;;;;5029597;28;20337;-64
2022/12/29 05:58:05;;;;;;;1.77;1.60;;;10.40;99.90;;;;;;5029482;28;20207;-64
2022/12/29 06:00:31;;;;;;;1.90;1.60;;;10.40;99.90;;;;;;5029580;28;20268;-64
2022/12/29 06:02:56;;;;;;;1.20;1.10;;;10.50;99.90;;;;;;5029730;28;20510;-65
2022/12/29 06:05:22;;;;;;;3.00;1.73;;;10.50;99.90;;;;;;5029809;28;20196;-63
2022/12/29 06:07:47;;;;;;;1.30;1.20;;;10.50;99.90;;;;;;5026966;28;20211;-63
2022/12/29 06:10:13;;;;;;;1.87;1.30;;;10.50;99.90;;;;;;5028733;28;20790;-63
2022/12/29 06:12:38;;;;;;;1.80;1.50;;;10.50;99.90;;;;;;5028401;28;20298;-63
2022/12/29 06:15:04;;;;;;;1.63;1.03;;;10.50;99.90;;;;;;5031184;28;20295;-63
2022/12/29 06:17:30;;;;;;;10.53;3.33;;;10.60;99.90;;;;;;5035410;28;20716;-63
2022/12/29 06:19:55;;;;;;;1.70;1.40;;;10.60;99.90;;;;;;5025448;28;20232;-62
2022/12/29 06:22:21;;;;;;;2.20;1.53;;;10.60;99.90;;;;;;5027472;28;20226;-64
2022/12/29 06:24:46;;;;;;;1.13;1.00;;;10.60;99.90;;;;;;5024549;28;20227;-63
2022/12/29 06:27:11;;;;;;;1.30;1.20;;;10.60;99.90;;;;;;5028824;28;20284;-63
2022/12/29 06:29:39;;;;;;;2.07;1.60;;;10.60;99.90;;;;;;5028974;28;20577;-63
2022/12/29 06:32:05;;;;;;;2.00;1.20;;;10.70;99.90;;;;;;5032031;28;20195;-66
2022/12/29 06:34:30;;;;;;;2.13;1.70;;;10.70;99.90;;;;;;5025382;28;20216;-64
2022/12/29 06:36:56;;;;;;;1.40;1.30;;;10.70;99.90;;;;;;5029474;28;20191;-64
2022/12/29 06:39:21;;;;;;;2.60;1.70;;;10.70;99.90;;;;;;5032928;28;20196;-63
2022/12/29 06:41:46;;;;;;;2.00;1.17;;;10.80;99.90;;;;;;5030317;28;20319;-62
2022/12/29 06:44:12;;;;;;;1.67;1.33;;;10.80;99.90;;;;;;5027891;28;20661;-63
2022/12/29 06:46:37;;;;;;;1.97;1.40;;;10.80;99.90;;;;;;5028230;28;20277;-63
2022/12/29 06:49:03;;;;;;;1.43;1.33;;;10.90;99.90;;;;;;5027306;28;20229;-64
2022/12/29 06:51:28;;;;;;;1.33;1.23;;;10.90;99.90;;;;;;5029011;28;20208;-64
2022/12/29 06:53:54;;;;;;;1.13;1.03;;;10.80;99.90;;;;;;5028427;28;20296;-64
2022/12/29 06:56:19;;;;;;;0.83;0.83;;;10.80;99.90;;;;;;5028854;28;20196;-64
2022/12/29 06:58:45;;;;;;;2.90;1.40;;;10.80;99.90;;;;;;5028492;28;20233;-64
2022/12/29 07:01:10;;;;;;;1.10;1.00;;;10.80;99.90;;;;;;5027105;28;20217;-63
2022/12/29 07:03:35;;;;;;;1.27;1.20;;;10.80;99.90;;;;;;5026123;28;20283;-63
2022/12/29 07:06:01;;;;;;;2.30;1.00;;;10.70;99.90;;;;;;5029265;28;20211;-63
2022/12/29 07:08:26;;;;;;;1.17;1.07;;;10.70;99.90;;;;;;5035167;28;20204;-64
2022/12/29 07:10:52;;;;;;;1.83;1.37;;;10.60;99.90;;;;;;5037960;28;20201;-63
2022/12/29 07:13:17;;;;;;;1.40;1.30;;;10.60;99.90;;;;;;5037952;28;20716;-65
2022/12/29 07:15:43;;;;;;;1.73;1.63;;;10.60;99.90;;;;;;5030732;28;20288;-64
2022/12/29 07:18:08;;;;;;;0.90;0.90;;;10.60;99.90;;;;;;5028651;28;20197;-65
2022/12/29 07:20:34;;;;;;;1.40;1.30;;;10.60;99.90;;;;;;5028395;28;20205;-64
2022/12/29 07:23:00;;;;;;;1.53;1.20;;;10.60;99.90;;;;;;5030652;28;20361;-62
2022/12/29 07:25:25;;;;;;;0.93;0.93;;;10.60;99.90;;;;;;5025886;28;20236;-63
2022/12/29 07:27:51;;;;;;;1.00;1.00;;;10.60;99.90;;;;;;5023008;28;20282;-64
2022/12/29 07:30:16;;;;;;;1.20;1.10;;;10.60;99.90;;;;;;5026768;28;20303;-63
2022/12/29 07:32:42;;;;;;;1.80;1.43;;;10.50;99.90;;;;;;5028671;28;20211;-63
2022/12/29 07:35:08;;;;;;;1.83;1.10;;;10.50;99.90;;;;;;5037598;28;20226;-63
2022/12/29 07:37:34;;;;;;;1.60;1.50;;;10.50;99.90;;;;;;5030087;28;20209;-63
2022/12/29 07:40:01;;;;;;;2.47;1.47;;;10.50;99.90;;;;;;5023450;28;20291;-63
2022/12/29 07:42:26;;;;;;;2.63;1.40;;;10.50;99.90;;;;;;5026750;28;20204;-63
2022/12/29 07:44:52;;;;;;;1.77;1.10;;;10.50;99.90;;;;;;5032453;28;20198;-64
2022/12/29 07:47:17;;;;;;;1.50;1.13;;;10.50;99.90;;;;;;5028135;28;20641;-63
2022/12/29 07:49:43;;;;;;;2.20;1.23;;;10.50;99.90;;;;;;5027662;28;20211;-64
2022/12/29 07:52:08;;;;;;;1.73;1.10;;;10.50;99.90;;;;;;5027706;28;20198;-64
2022/12/29 07:54:34;;;;;;;1.53;1.27;;;10.50;99.90;;;;;;5025758;28;20211;-65
2022/12/29 07:57:00;;;;;;;1.57;1.17;;;10.60;99.90;;;;;;5032389;28;20692;-65
2022/12/29 07:59:35;;;;;;;1.17;0.97;;;10.60;99.90;;;;;;5053798;28;20634;-66
2022/12/29 08:02:01;;;;;;;1.23;1.00;;;10.60;99.90;;;;;;5049051;28;20689;-65
2022/12/29 08:04:26;;;;;;;2.13;1.20;;;10.60;99.90;;;;;;5051712;28;20783;-65
2022/12/29 08:06:52;;;;;;;0.93;0.77;;;10.60;99.90;;;;;;5051686;28;20207;-64
2022/12/29 08:09:17;;;;;;;0.97;0.97;;;10.60;99.90;;;;;;5049795;28;20199;-64
2022/12/29 08:11:43;;;;;;;1.93;1.13;;;10.60;99.90;;;;;;5053189;28;20626;-63
2022/12/29 08:14:09;;;;;;;1.93;1.50;;;10.60;99.90;;;;;;5054410;28;20209;-63
2022/12/29 08:16:35;;;;;;;2.77;1.10;;;10.60;99.90;;;;;;5047359;28;20212;-63
2022/12/29 08:19:00;;;;;;;1.10;1.03;;;10.60;99.90;;;;;;5053595;28;20219;-64
2022/12/29 08:21:28;;;;;;;1.10;1.00;;;10.60;99.90;;;;;;5034820;28;20207;-64
2022/12/29 08:23:53;;;;;;;1.27;1.17;;;10.60;99.90;;;;;;5023560;28;20218;-64
2022/12/29 08:26:19;;;;;;;1.30;1.20;;;10.60;99.90;;;;;;5023654;28;20188;-64
2022/12/29 08:28:44;;;;;;;1.07;1.00;;;10.50;99.90;;;;;;5031436;28;20868;-63
2022/12/29 08:31:10;;;;;;;1.27;1.17;;;10.50;99.90;;;;;;5021035;28;20203;-63
2022/12/29 08:33:36;;;;;;;1.00;1.00;;;10.50;99.90;;;;;;5023112;28;20580;-63
2022/12/29 08:36:04;;;;;;;1.70;1.03;;;10.50;99.90;;;;;;5025404;28;20301;-62
2022/12/29 08:38:29;;;;;;;1.00;1.00;;;10.50;99.90;;;;;;5028916;28;20679;-63
2022/12/29 08:40:56;;;;;;;1.00;1.00;;;10.50;99.90;;;;;;5032844;28;20261;-62
2022/12/29 08:43:22;;;;;;;1.50;1.07;;;10.50;99.90;;;;;;5026937;28;20569;-62
2022/12/29 08:45:47;;;;;;;1.30;1.20;;;10.50;99.90;;;;;;5023426;28;20678;-63
2022/12/29 08:48:13;;;;;;;3.43;1.10;;;10.50;99.90;;;;;;5028982;28;20207;-64
2022/12/29 08:50:38;;;;;;;1.33;1.27;;;10.50;99.90;;;;;;5027131;28;20201;-62
2022/12/29 08:53:04;;;;;;;1.73;1.57;;;10.50;99.90;;;;;;5027978;28;20211;-62
2022/12/29 08:55:29;;;;;;;2.83;1.27;;;10.60;99.90;;;;;;5023539;28;20304;-62
2022/12/29 08:57:55;;;;;;;1.83;1.50;;;10.70;99.90;;;;;;5021586;28;20250;-61
2022/12/29 09:00:21;;;;;;;3.23;1.50;;;10.70;99.90;;;;;;5026308;28;20212;-62
2022/12/29 09:02:47;;;;;;;2.40;1.10;;;10.70;99.90;;;;;;5022303;28;20215;-62
2022/12/29 09:05:12;;;;;;;1.20;1.10;;;10.80;99.90;;;;;;5022559;28;20209;-62
2022/12/29 09:07:38;;;;;;;3.07;1.77;;;10.70;99.90;;;;;;5026295;28;20282;-62
2022/12/29 09:10:04;;;;;;;2.50;1.47;;;10.70;99.90;;;;;;5014425;28;20571;-63
2022/12/29 09:12:30;;;;;;;1.47;1.37;;;10.70;99.90;;;;;;5010632;28;20207;-63
2022/12/29 09:14:55;;;;;;;2.63;1.57;;;10.70;99.90;;;;;;5025686;28;20594;-64
2022/12/29 09:20:05;;;;;;;1.00;1.00;;;10.70;99.90;;;;;;5026460;28;20210;-64
2022/12/29 09:22:31;;;;;;;1.30;1.20;;;10.80;99.90;;;;;;5010854;28;20204;-64
2022/12/29 09:24:56;;;;;;;1.73;1.60;;;10.90;99.90;;;;;;5008148;28;20197;-64
2022/12/29 09:27:22;;;;;;;2.13;1.40;;;10.90;99.90;;;;;;5006365;28;20654;-64
2022/12/29 09:29:47;;;;;;;1.87;1.50;;;11.00;99.90;;;;;;5009560;28;20192;-69
2022/12/29 09:32:13;;;;;;;1.03;1.03;;;11.00;99.90;;;;;;5017076;28;20200;-66
2022/12/29 09:34:39;;;;;;;1.73;1.10;;;11.20;99.90;;;;;;5014588;28;20200;-68
2022/12/29 09:37:04;;;;;;;1.33;1.23;;;11.40;99.90;;;;;;5013543;28;20214;-67
2022/12/29 09:39:30;;;;;;;1.40;1.30;;;11.60;99.90;;;;;;5012524;28;20243;-69
2022/12/29 09:42:06;;;;;;;0.90;0.90;;;11.60;99.90;;;;;;5013868;28;20651;-69
2022/12/29 09:45:02;;;;;;;1.13;1.03;;;11.70;99.90;;;;;;5011298;28;20201;-68
2022/12/29 09:47:28;;;;;;;2.97;1.00;;;11.80;99.90;;;;;;5019925;28;20235;-70
2022/12/29 09:49:58;;;;;;;1.17;1.17;;;11.80;99.90;;;;;;5022341;28;20404;-67
2022/12/29 09:52:40;;;;;;;2.00;1.30;;;11.90;99.90;;;;;;5013974;28;20407;-69
2022/12/29 09:55:19;;;;;;;1.30;1.20;;;11.90;99.90;;;;;;5009081;28;20202;-68
2022/12/29 09:57:49;;;;;;;1.20;0.93;;;12.00;99.90;;;;;;5008817;28;20606;-68
2022/12/29 10:00:21;;;;;;;1.27;0.93;;;12.10;99.90;;;;;;5015626;28;20592;-67
2022/12/29 10:02:52;;;;;;;2.03;1.30;;;12.20;99.90;;;;;;5020372;28;20586;-66
2022/12/29 10:05:39;;;;;;;1.50;1.17;;;12.20;99.90;;;;;;5017029;28;20206;-68
2022/12/29 10:08:35;;;;;;;1.00;1.00;;;12.20;99.90;;;;;;5024721;28;20240;-65
2022/12/29 10:11:23;;;;;;;1.17;1.00;;;12.30;99.90;;;;;;5026661;28;20217;-65
2022/12/29 10:14:07;;;;;;;3.90;1.23;;;12.20;99.90;;;;;;5015449;28;20735;-67
2022/12/29 10:16:58;;;;;;;0.90;0.90;;;12.20;99.90;;;;;;5015734;28;20200;-68
2022/12/29 10:20:08;;;;;;;0.90;0.90;;;12.40;99.90;;;;;;5015249;28;20216;-68
2022/12/29 10:23:12;;;;;;;1.10;0.97;;;12.40;99.90;;;;;;5001133;28;20220;-68
2022/12/29 10:25:39;;;;;;;0.80;0.80;;;12.50;99.90;;;;;;5008585;28;20715;-69
2022/12/29 10:28:22;;;;;;;1.43;1.03;;;12.60;99.90;;;;;;5012476;28;20551;-69
2022/12/29 10:30:49;;;;;;;1.93;1.10;;;12.80;99.90;;;;;;5016515;28;20690;-67
2022/12/29 10:33:26;;;;;;;1.57;1.10;;;13.00;99.90;;;;;;5016722;28;20715;-66
2022/12/29 10:35:52;;;;;;;2.20;0.90;;;13.20;99.90;;;;;;5015583;28;20204;-67
2022/12/29 10:38:28;;;;;;;2.33;1.17;;;13.30;99.90;;;;;;5014646;28;20293;-72
2022/12/29 10:41:00;;;;;;;1.67;1.03;;;13.40;99.90;;;;;;5013853;28;20202;-72
2022/12/29 10:43:29;;;;;;;0.93;0.80;;;13.50;99.90;;;;;;5016616;28;20196;-73
2022/12/29 10:46:02;;;;;;;0.73;0.73;;;13.60;99.90;;;;;;5014830;28;20860;-76
2022/12/29 10:48:33;;;;;;;1.70;1.17;;;13.70;99.90;;;;;;5013301;28;20632;-74
2022/12/29 10:51:01;;;;;;;1.07;0.80;;;13.60;99.90;;;;;;5004737;28;20849;-74
2022/12/29 10:53:35;;;;;;;1.50;1.07;;;13.60;99.90;;;;;;5007629;28;20212;-75
2022/12/29 10:56:03;;;;;;;2.30;0.90;;;13.50;99.90;;;;;;5016272;28;20308;-77
2022/12/29 10:58:32;;;;;;;1.47;0.80;;;13.60;99.90;;;;;;5012472;28;20295;-77
2022/12/29 11:00:57;;;;;;;1.17;1.00;;;13.50;99.90;;;;;;5016506;28;20195;-80
2022/12/29 11:03:28;;;;;;;;;;;13.50;99.90;;;;;;5011500;28;20209;-84
2022/12/29 11:06:12;;;;;;;;;;;13.50;99.90;;;;;;5008070;28;20345;-75
2022/12/29 11:08:39;;;;;;;;;;;13.60;99.90;;;;;;5008150;28;19914;-61
2022/12/29 11:11:06;;;;;;;;;;;13.70;99.90;;;;;;5009490;28;19940;-61
2022/12/29 11:13:32;;;;;;;;;;;13.70;99.90;;;;;;5011503;28;20371;-61
2022/12/29 11:15:59;;;;;;;;;;;13.80;99.90;;;;;;5006453;28;19917;-61
2022/12/29 11:18:26;;;;;;;;;;;13.80;99.90;;;;;;5007620;28;19929;-63
2022/12/29 11:20:59;;;;;;;3.15;1.10;;;13.90;99.90;;;;;;5009039;28;20408;-61
2022/12/29 11:23:32;;;;;;;1.10;1.00;;;13.90;99.90;;;;;;5011311;28;20206;-61
2022/12/29 11:26:10;;;;;;;2.93;0.93;;;13.80;99.90;;;;;;5013474;28;20756;-60
2022/12/29 11:28:39;;;;;;;1.10;1.03;;;13.80;99.90;;;;;;5005465;28;20704;-60
2022/12/29 11:31:06;;;;;;;0.70;0.70;;;13.80;99.90;;;;;;5014178;28;20226;-60
2022/12/29 11:33:34;;;;;;;2.70;1.10;;;13.80;99.90;;;;;;5007927;28;20412;-60
2022/12/29 11:36:05;;;;;;;1.50;1.27;;;13.70;99.90;;;;;;5012571;28;20201;-72
2022/12/29 11:38:38;;;;;;;1.47;1.00;;;13.70;99.90;;;;;;5009189;28;20207;-61
2022/12/29 11:41:06;;;;;;;1.00;1.00;;;13.80;99.90;;;;;;5010374;28;20192;-62
2022/12/29 11:43:36;;;;;;;1.93;0.90;;;13.70;99.90;;;;;;5007519;28;20308;-60
2022/12/29 11:46:03;;;;;;;1.13;0.80;;;13.60;99.90;;;;;;5006873;28;20743;-60
2022/12/29 11:48:39;;;;;;;1.03;0.90;;;13.60;99.90;;;;;;5011158;28;20206;-61
2022/12/29 11:51:05;;;;;;;1.40;1.27;;;13.50;99.90;;;;;;5014259;28;20201;-60
2022/12/29 11:53:39;;;;;;;1.53;1.10;;;13.40;99.90;;;;;;5007575;28;20191;-61
2022/12/29 11:56:10;;;;;;;1.83;1.67;;;13.30;99.90;;;;;;5008598;28;20214;-60
2022/12/29 11:58:37;;;;;;;0.70;0.70;;;13.20;99.90;;;;;;5014419;28;20694;-60
2022/12/29 12:01:06;;;;;;;1.30;1.20;;;13.20;99.90;;;;;;5015256;28;20196;-60
2022/12/29 12:03:35;;;;;;;5.43;2.97;;;13.00;99.90;;;;;;5014681;28;20207;-62
2022/12/29 12:06:02;;;;;;;3.23;1.60;;;12.90;99.90;;;;;;5012999;28;20196;-60
2022/12/29 12:08:34;;;;;;;2.07;1.87;;;12.70;99.90;;;;;;5010873;28;20207;-59
2022/12/29 12:11:12;;;;;;;2.00;1.67;;;12.50;99.90;;;;;;5012705;28;20219;-63
2022/12/29 12:13:56;;;;;;;1.07;0.83;;;12.40;99.90;;;;;;5006625;28;20233;-60
2022/12/29 12:16:32;;;;;;;0.60;0.60;;;12.20;99.90;;;;;;5006718;28;20213;-64
2022/12/29 12:19:09;;;;;;;0.67;0.67;;;12.10;99.90;;;;;;5007507;28;20242;-61
2022/12/29 12:21:39;;;;;;;0.57;0.57;;;12.00;99.90;;;;;;5012221;28;20706;-61
2022/12/29 12:24:45;;;;;;;0.50;0.50;;;11.90;99.90;;;;;;5007018;28;20659;-61
2022/12/29 12:27:20;;;;;;;1.17;0.57;;;11.90;99.90;;;;;;5010182;28;20206;-62
2022/12/29 12:30:00;;;;;;;0.70;0.70;;;11.80;99.90;;;;;;5008666;28;20209;-59
2022/12/29 12:32:37;;;;;;;0.60;0.60;;;11.80;99.90;;;;;;5015541;28;20310;-62
2022/12/29 12:35:03;;;;;;;0.77;0.53;;;11.80;99.90;;;;;;5017609;28;20193;-60
2022/12/29 12:37:47;;;;;;;0.53;0.53;;;11.80;99.90;;;;;;5015844;28;20206;-61
2022/12/29 12:40:45;;;;;;;0.70;0.70;;;11.90;99.90;;;;;;5013339;28;20202;-61
2022/12/29 12:43:37;;;;;;;1.00;0.50;;;11.90;99.90;;;;;;5012298;28;20198;-61
2022/12/29 12:46:21;;;;;;;0.60;0.50;;;11.80;99.90;;;;;;5013509;28;20726;-62
2022/12/29 12:49:20;;;;;;;1.93;0.67;;;11.80;99.90;;;;;;5017440;28;20748;-62
2022/12/29 12:52:01;;;;;;;0.60;0.60;;;11.80;99.90;;;;;;5015538;28;20229;-63
2022/12/29 12:54:51;;;;;;;0.73;0.73;;;11.80;99.90;;;;;;5012290;28;21106;-65
2022/12/29 12:57:57;;;;;;;0.70;0.50;;;12.00;99.90;;;;;;5019058;28;20893;-67
2022/12/29 13:00:23;;;;;;;0.73;0.57;;;12.40;99.90;;;;;;5013518;28;20209;-60
2022/12/29 13:03:26;;;;;;;2.07;0.60;;;12.30;99.90;;;;;;5006669;28;20619;-60
2022/12/29 13:06:02;;;;;;;0.63;0.60;;;12.30;99.90;;;;;;5009304;28;20205;-60
2022/12/29 13:08:45;;;;;;;0.43;0.43;;;12.10;99.90;;;;;;5010094;28;20552;-60
2022/12/29 13:11:45;;;;;;;0.33;0.33;;;12.10;99.90;;;;;;5020642;28;20754;-60
2022/12/29 13:14:37;;;;;;;1.97;0.70;;;12.00;99.90;;;;;;5011613;28;20784;-61
2022/12/29 13:17:20;;;;;;;1.30;1.00;;;12.00;99.90;;;;;;5011023;28;20636;-74
2022/12/29 13:20:04;;;;;;;1.97;1.00;;;12.00;99.90;;;;;;5017540;28;20343;-70
2022/12/29 13:22:46;;;;;;;3.20;1.03;;;12.00;99.90;;;;;;5013678;28;20213;-70
2022/12/29 13:25:44;;;;;;;1.43;0.90;;;11.90;99.90;;;;;;5007360;28;20300;-69
2022/12/29 13:28:31;;;;;;;1.13;1.00;;;11.70;99.90;;;;;;5011642;28;20666;-69
2022/12/29 13:31:12;;;;;;;0.87;0.60;;;11.50;99.90;;;;;;5013601;28;20838;-68
2022/12/29 13:33:59;;;;;;;1.37;0.70;;;11.40;99.90;;;;;;5015007;28;20213;-67
2022/12/29 13:36:37;;;;;;;2.20;0.80;;;11.40;99.90;;;;;;5017938;28;20289;-68
2022/12/29 13:39:26;;;;;;;1.00;0.90;;;11.30;99.90;;;;;;5015333;28;20546;-68
2022/12/29 13:41:56;;;;;;;1.40;1.13;;;11.30;99.90;;;;;;5013163;28;20352;-68
2022/12/29 13:44:33;;;;;;;0.87;0.87;;;11.30;99.90;;;;;;5016135;28;20208;-67
2022/12/29 13:47:05;;;;;;;1.97;0.80;;;11.30;99.90;;;;;;5012136;28;20535;-68
2022/12/29 13:49:33;;;;;;;2.63;1.20;;;11.30;99.90;;;;;;5018761;28;20200;-69
2022/12/29 13:52:13;;;;;;;1.03;0.70;;;11.30;99.90;;;;;;5013754;28;20205;-68